Time;durP1;ratioP1;P1;durP2;ratioP2;P2;SDS_P1;SDS_P2;PMS_P1;PMS_P2;Temp;Humidity;BMP_temperature;BMP_pressure;BME280_temperature;BME280_humidity;BME280_pressure;Samples;Min_cycle;Max_cycle;Signal;HPM_P1;HPM_P2
2023/01/17 00:00:03;;;;;;;;;;;4.40;89.70;;;;;;5023654;28;19913;-85
2023/01/17 00:02:29;;;;;;;;;;;4.40;89.80;;;;;;5008523;28;19932;-85
2023/01/17 00:10:25;;;;;;;;;;;4.40;89.50;;;;;;5023044;28;20287;-86
2023/01/17 00:12:52;;;;;;;;;;;4.30;89.70;;;;;;5007140;28;19961;-85
2023/01/17 00:15:18;;;;;;;;;;;4.40;89.70;;;;;;5008599;28;19945;-86
2023/01/17 00:17:44;;;;;;;;;;;4.40;89.60;;;;;;5029684;28;19988;-86
2023/01/17 01:35:02;;;;;;;;;;;4.20;88.60;;;;;;5008618;28;19920;-85
2023/01/17 01:37:27;;;;;;;;;;;4.10;88.60;;;;;;5007451;28;19913;-85
2023/01/17 01:39:53;;;;;;;;;;;4.20;88.70;;;;;;5005870;28;20475;-85
2023/01/17 01:42:18;;;;;;;;;;;4.20;88.40;;;;;;5014096;28;19921;-85
2023/01/17 01:44:51;;;;;;;;;;;4.20;88.40;;;;;;5014414;28;19925;-84
2023/01/17 01:47:21;;;;;;;;;;;4.10;88.40;;;;;;5003211;28;19983;-85
2023/01/17 01:49:47;;;;;;;;;;;4.10;88.30;;;;;;5012739;28;20020;-85
2023/01/17 01:52:14;;;;;;;;;;;4.10;88.30;;;;;;5001370;28;19945;-85
2023/01/17 01:54:41;;;;;;;;;;;4.10;87.90;;;;;;4990889;28;20355;-84
2023/01/17 01:57:08;;;;;;;;;;;4.20;88.10;;;;;;5009411;28;20288;-85
2023/01/17 01:59:36;;;;;;;;;;;4.30;87.90;;;;;;5008413;28;19974;-85
2023/01/17 02:02:01;;;;;;;;;;;4.20;87.50;;;;;;5015003;28;20299;-85
2023/01/17 02:04:27;;;;;;;;;;;4.10;87.90;;;;;;5010080;28;19914;-84
2023/01/17 02:06:57;;;;;;;;;;;4.10;88.00;;;;;;5009596;28;19914;-85
2023/01/17 02:09:23;;;;;;;;;;;4.10;87.90;;;;;;5006274;28;19925;-85
2023/01/17 02:11:48;;;;;;;;;;;4.10;88.10;;;;;;5012641;28;19921;-86
2023/01/17 02:14:19;;;;;;;;;;;4.00;88.20;;;;;;5011240;28;19913;-86
2023/01/17 02:16:59;;;;;;;;;;;4.10;87.90;;;;;;5013299;28;19917;-85
2023/01/17 02:19:43;;;;;;;;;;;4.00;88.20;;;;;;5013015;28;20415;-85
2023/01/17 02:22:09;;;;;;;;;;;4.00;88.30;;;;;;5019436;28;19913;-86
2023/01/17 02:24:37;;;;;;;;;;;3.70;88.30;;;;;;5018511;28;19921;-85
2023/01/17 02:27:22;;;;;;;;;;;3.60;88.20;;;;;;5013956;28;20009;-85
2023/01/17 02:30:12;;;;;;;;;;;3.40;88.50;;;;;;5096366;27;1944976;-85
2023/01/17 02:33:00;;;;;;;;;;;3.10;88.20;;;;;;5142536;27;19912;-84
2023/01/17 02:35:33;;;;;;;;;;;3.10;88.90;;;;;;5149803;27;19920;-84
2023/01/17 02:37:59;;;;;;;;;;;3.10;89.10;;;;;;5122052;27;19912;-85
2023/01/17 02:40:35;;;;;;;;;;;3.10;89.20;;;;;;5120251;27;19973;-85
2023/01/17 02:43:04;;;;;;;;;;;3.00;89.30;;;;;;5128455;27;19911;-85
2023/01/17 02:45:30;;;;;;;;;;;3.00;89.40;;;;;;5122447;27;19911;-85
2023/01/17 02:47:55;;;;;;;;;;;3.00;89.60;;;;;;5130676;27;19926;-85
2023/01/17 02:50:22;;;;;;;;;;;3.10;89.70;;;;;;5125530;27;19935;-84
2023/01/17 02:53:01;;;;;;;;;;;3.10;89.50;;;;;;5123026;27;20376;-85
2023/01/17 02:55:27;;;;;;;;;;;3.10;89.10;;;;;;5126708;28;20327;-85
2023/01/17 02:58:07;;;;;;;;;;;3.10;89.40;;;;;;5124958;27;19931;-85
2023/01/17 03:00:42;;;;;;;;;;;3.10;89.40;;;;;;5129591;27;19911;-84
2023/01/17 03:03:10;;;;;;;;;;;3.00;89.20;;;;;;5126507;28;19923;-85
2023/01/17 03:05:41;;;;;;;;;;;2.80;89.10;;;;;;5133705;27;20390;-85
2023/01/17 03:08:07;;;;;;;;;;;2.50;89.10;;;;;;5130292;27;20014;-85
2023/01/17 03:10:34;;;;;;;;;;;2.40;89.50;;;;;;5125007;27;19943;-85
2023/01/17 03:12:59;;;;;;;;;;;2.30;89.30;;;;;;5128349;27;20414;-85
2023/01/17 03:15:25;;;;;;;;;;;2.10;89.50;;;;;;5127160;27;19920;-86
2023/01/17 03:17:51;;;;;;;;;;;2.10;89.70;;;;;;5121215;27;19912;-85
2023/01/17 03:20:17;;;;;;;;;;;1.90;89.80;;;;;;5121346;27;19916;-85
2023/01/17 03:22:43;;;;;;;;;;;1.90;90.30;;;;;;5127132;27;19965;-85
2023/01/17 03:25:08;;;;;;;;;;;1.90;90.20;;;;;;5119572;28;19919;-83
2023/01/17 03:27:34;;;;;;;;;;;1.80;90.60;;;;;;5129602;27;19969;-84
2023/01/17 03:30:00;;;;;;;;;;;1.80;90.50;;;;;;5120017;27;19926;-85
2023/01/17 03:32:26;;;;;;;;;;;1.70;90.60;;;;;;5107101;28;19965;-85
2023/01/17 03:34:51;;;;;;;;;;;1.90;90.80;;;;;;5110939;27;19912;-85
2023/01/17 03:37:17;;;;;;;;;;;1.80;90.70;;;;;;5124897;27;19916;-83
2023/01/17 03:39:42;;;;;;;;;;;1.90;90.70;;;;;;5135435;27;19912;-84
2023/01/17 03:42:08;;;;;;;;;;;1.90;90.90;;;;;;5102169;28;19912;-85
2023/01/17 03:44:33;;;;;;;;;;;2.00;90.80;;;;;;5119831;27;19923;-84
2023/01/17 03:46:59;;;;;;;;;;;2.00;90.80;;;;;;5096484;28;19912;-84
2023/01/17 03:49:25;;;;;;;;;;;2.00;91.00;;;;;;5101306;28;19924;-83
2023/01/17 03:51:50;;;;;;;;;;;2.10;90.90;;;;;;5089174;28;19919;-84
2023/01/17 03:54:16;;;;;;;;;;;2.00;90.80;;;;;;5089262;28;20632;-83
2023/01/17 03:56:41;;;;;;;;;;;2.00;90.70;;;;;;5110740;28;20366;-83
2023/01/17 03:59:07;;;;;;;;;;;1.90;90.90;;;;;;5088478;28;20335;-82
2023/01/17 04:01:32;;;;;;;;;;;1.90;90.80;;;;;;5103560;27;20386;-84
2023/01/17 04:03:57;;;;;;;;;;;1.90;91.10;;;;;;5094500;28;20372;-84
2023/01/17 04:06:23;;;;;;;;;;;1.90;90.90;;;;;;5092657;28;20239;-83
2023/01/17 04:08:48;;;;;;;;;;;2.00;91.00;;;;;;5104976;28;19927;-83
2023/01/17 04:11:14;;;;;;;;;;;2.10;91.00;;;;;;5090334;28;19960;-83
2023/01/17 04:13:39;;;;;;;;;;;2.10;90.90;;;;;;5096321;28;19916;-83
2023/01/17 04:16:05;;;;;;;;;;;2.10;90.90;;;;;;5092504;27;19912;-82
2023/01/17 04:18:30;;;;;;;;;;;2.10;90.90;;;;;;5098192;27;19915;-83
2023/01/17 04:20:56;;;;;;;;;;;2.10;91.00;;;;;;5093420;28;20506;-83
2023/01/17 04:23:21;;;;;;;;;;;2.20;91.00;;;;;;5086889;28;19998;-83
2023/01/17 04:25:47;;;;;;;;;;;2.20;90.80;;;;;;5094299;28;19923;-84
2023/01/17 04:28:12;;;;;;;;;;;2.20;90.90;;;;;;5106900;28;19969;-84
2023/01/17 04:30:38;;;;;;;;;;;2.30;91.20;;;;;;5093407;28;19961;-84
2023/01/17 04:33:03;;;;;;;;;;;2.40;91.30;;;;;;5103067;27;19960;-84
2023/01/17 04:35:30;;;;;;;;;;;2.40;91.00;;;;;;5096133;28;19934;-84
2023/01/17 04:37:55;;;;;;;;;;;2.30;90.60;;;;;;5097191;27;19935;-84
2023/01/17 04:40:21;;;;;;;;;;;2.30;90.70;;;;;;5105860;28;19912;-84
2023/01/17 04:42:46;;;;;;;;;;;2.30;90.50;;;;;;5106994;27;20389;-84
2023/01/17 04:45:12;;;;;;;;;;;2.30;90.60;;;;;;5109299;27;20254;-85
2023/01/17 04:47:38;;;;;;;;;;;2.40;90.50;;;;;;5114390;27;20265;-84
2023/01/17 04:50:03;;;;;;;;;;;2.50;90.90;;;;;;5120438;27;19982;-84
2023/01/17 04:52:29;;;;;;;;;;;2.50;90.80;;;;;;5113878;28;20337;-84
2023/01/17 04:54:54;;;;;;;;;;;2.40;90.60;;;;;;5110735;27;19991;-84
2023/01/17 04:57:20;;;;;;;;;;;2.40;90.50;;;;;;5117188;27;19912;-83
2023/01/17 04:59:45;;;;;;;;;;;2.50;90.50;;;;;;5111306;28;19922;-84
2023/01/17 05:02:11;;;;;;;;;;;2.50;90.70;;;;;;5106720;27;20293;-83
2023/01/17 05:04:37;;;;;;;;;;;2.50;90.40;;;;;;5102009;28;19917;-83
2023/01/17 05:07:02;;;;;;;;;;;2.60;90.50;;;;;;5109306;28;19919;-83
2023/01/17 05:09:28;;;;;;;;;;;2.60;90.60;;;;;;5105581;27;19942;-84
2023/01/17 05:11:54;;;;;;;;;;;2.60;90.10;;;;;;5105967;28;20269;-82
2023/01/17 05:14:20;;;;;;;;;;;2.60;90.00;;;;;;5105439;28;19912;-82
2023/01/17 05:16:45;;;;;;;;;;;2.60;90.40;;;;;;5112452;28;20317;-83
2023/01/17 05:19:11;;;;;;;;;;;2.60;90.10;;;;;;5112181;28;20067;-84
2023/01/17 05:21:36;;;;;;;;;;;2.60;90.10;;;;;;5108875;28;19926;-83
2023/01/17 05:24:02;;;;;;;;;;;2.60;90.40;;;;;;5112533;27;19942;-84
2023/01/17 05:26:27;;;;;;;;;;;2.40;90.20;;;;;;5098565;22;19946;-82
2023/01/17 05:28:53;;;;;;;;;;;2.50;90.40;;;;;;5046105;28;20012;-83
2023/01/17 05:31:19;;;;;;;;;;;2.40;90.40;;;;;;5039185;28;19916;-81
2023/01/17 05:33:44;;;;;;;;;;;2.50;90.90;;;;;;5041994;28;19917;-83
2023/01/17 05:36:09;;;;;;;;;;;2.60;90.60;;;;;;5065172;28;19920;-83
2023/01/17 05:38:35;;;;;;;;;;;2.60;90.50;;;;;;5070731;28;19916;-83
2023/01/17 05:41:01;;;;;;;;;;;2.50;90.50;;;;;;5045926;28;19948;-84
2023/01/17 05:43:27;;;;;;;;;;;2.50;90.70;;;;;;5087438;28;19917;-82
2023/01/17 05:45:52;;;;;;;;;;;2.60;90.30;;;;;;5065773;28;19917;-84
2023/01/17 05:48:18;;;;;;;;;;;2.50;90.50;;;;;;5085016;28;19924;-83
2023/01/17 05:50:43;;;;;;;;;;;2.50;90.70;;;;;;5078489;28;19977;-82
2023/01/17 05:53:10;;;;;;;;;;;2.60;90.80;;;;;;5091445;28;19912;-80
2023/01/17 05:55:36;;;;;;;;;;;2.60;90.60;;;;;;5047482;28;20292;-82
2023/01/17 05:58:02;;;;;;;;;;;2.60;90.40;;;;;;5079839;28;19981;-82
2023/01/17 06:00:28;;;;;;;;;;;2.60;90.40;;;;;;5056843;28;19995;-81
2023/01/17 06:02:54;;;;;;;;;;;2.60;90.20;;;;;;5072069;28;20475;-82
2023/01/17 06:05:20;;;;;;;;;;;2.60;89.90;;;;;;5042225;28;19920;-81
2023/01/17 06:07:46;;;;;;;;;;;2.60;89.30;;;;;;5060846;28;19917;-80
2023/01/17 06:10:13;;;;;;;;;;;2.50;89.20;;;;;;5076027;28;19986;-81
2023/01/17 06:12:39;;;;;;;;;;;2.70;89.30;;;;;;5044327;28;19931;-82
2023/01/17 06:15:08;;;;;;;;;;;2.60;89.20;;;;;;5072411;28;19947;-84
2023/01/17 06:17:35;;;;;;;;;;;2.60;89.00;;;;;;5068787;28;19919;-82
2023/01/17 06:20:00;;;;;;;;;;;2.60;89.20;;;;;;5073289;28;19922;-82
2023/01/17 06:22:26;;;;;;;;;;;2.60;89.20;;;;;;5073242;28;19913;-83
2023/01/17 06:24:51;;;;;;;;;;;2.50;88.80;;;;;;5069455;28;19908;-83
2023/01/17 06:27:17;;;;;;;;;;;2.50;89.00;;;;;;5076919;28;19916;-82
2023/01/17 06:29:42;;;;;;;;;;;2.40;89.30;;;;;;5074418;28;19924;-82
2023/01/17 06:32:07;;;;;;;;;;;2.40;89.20;;;;;;5075960;28;19916;-84
2023/01/17 06:34:33;;;;;;;;;;;2.40;89.30;;;;;;5073941;28;19978;-84
2023/01/17 06:36:58;;;;;;;;;;;2.40;89.20;;;;;;5069305;28;20368;-84
2023/01/17 06:39:24;;;;;;;;;;;2.40;89.30;;;;;;5046265;28;20154;-83
2023/01/17 06:41:49;;;;;;;;;;;2.40;89.50;;;;;;5081198;28;19912;-81
2023/01/17 06:44:15;;;;;;;;;;;2.40;89.40;;;;;;5068102;28;19987;-81
2023/01/17 06:46:40;;;;;;;;;;;2.50;89.50;;;;;;5055991;28;19979;-81
2023/01/17 06:49:06;;;;;;;;;;;2.60;89.70;;;;;;5037466;28;19971;-82
2023/01/17 06:51:31;;;;;;;;;;;2.50;89.20;;;;;;5068410;28;19912;-82
2023/01/17 06:53:57;;;;;;;;;;;2.50;89.20;;;;;;5045475;28;20416;-81
2023/01/17 06:56:22;;;;;;;;;;;2.60;89.20;;;;;;5045782;28;20335;-81
2023/01/17 06:58:49;;;;;;;;;;;2.60;89.20;;;;;;5063038;28;19954;-81
2023/01/17 07:01:15;;;;;;;;;;;2.60;89.40;;;;;;5049179;28;20222;-81
2023/01/17 07:03:40;;;;;;;;;;;2.60;89.20;;;;;;5082062;28;19908;-81
2023/01/17 07:06:08;;;;;;;;;;;2.60;88.90;;;;;;5077511;28;19916;-81
2023/01/17 07:08:34;;;;;;;;;;;2.60;88.90;;;;;;5064831;28;19916;-81
2023/01/17 07:11:00;;;;;;;;;;;2.60;89.20;;;;;;5052279;28;19919;-81
2023/01/17 07:13:26;;;;;;;;;;;2.60;89.10;;;;;;5046389;28;20379;-81
2023/01/17 07:15:52;;;;;;;;;;;2.70;89.30;;;;;;5054738;28;19985;-82
2023/01/17 07:18:22;;;;;;;;;;;2.70;89.40;;;;;;5055476;28;20000;-79
2023/01/17 07:20:48;;;;;;;;;;;2.70;89.20;;;;;;5065523;28;19981;-80
2023/01/17 07:23:13;;;;;;;;;;;2.60;89.40;;;;;;5039035;28;19920;-80
2023/01/17 07:25:39;;;;;;;;;;;2.60;89.40;;;;;;5062779;28;19916;-80
2023/01/17 07:28:04;;;;;;;;;;;2.60;89.60;;;;;;5055628;28;19925;-80
2023/01/17 07:30:30;;;;;;;;;;;2.60;89.20;;;;;;5056137;28;19934;-81
2023/01/17 07:32:55;;;;;;;;;;;2.60;89.40;;;;;;5055682;28;20047;-81
2023/01/17 07:35:21;;;;;;;;;;;2.60;89.40;;;;;;5066683;28;20368;-81
2023/01/17 07:37:48;;;;;;;;;;;2.60;89.30;;;;;;5068766;28;19912;-82
2023/01/17 07:40:16;;;;;;;;;;;2.50;89.10;;;;;;5051713;28;19924;-82
2023/01/17 07:42:42;;;;;;;;;;;2.50;89.40;;;;;;5052487;28;19912;-82
2023/01/17 07:45:08;;;;;;;;;;;2.50;89.30;;;;;;5052378;28;19919;-82
2023/01/17 07:47:33;;;;;;;;;;;2.60;89.50;;;;;;5074747;28;19920;-82
2023/01/17 07:50:00;;;;;;;;;;;2.60;89.30;;;;;;5050206;28;19970;-80
2023/01/17 07:52:26;;;;;;;;;;;2.60;89.20;;;;;;5047706;28;19983;-79
2023/01/17 07:54:51;;;;;;;;;;;2.70;89.70;;;;;;5056785;28;19963;-80
2023/01/17 07:57:17;;;;;;;;;;;2.70;89.50;;;;;;5077466;28;20820;-79
2023/01/17 07:59:42;;;;;;;;;;;2.70;89.30;;;;;;5071644;28;19935;-79
2023/01/17 08:02:16;;;;;;;;;;;2.80;89.10;;;;;;5074298;28;19958;-82
2023/01/17 08:04:42;;;;;;;;;;;2.80;89.00;;;;;;5080075;28;19908;-84
2023/01/17 08:07:07;;;;;;;;;;;2.80;89.20;;;;;;5054183;28;20425;-82
2023/01/17 08:09:33;;;;;;;;;;;2.80;89.00;;;;;;5053968;28;19963;-83
2023/01/17 08:11:58;;;;;;;;;;;2.80;88.60;;;;;;5069140;28;19936;-82
2023/01/17 08:14:24;;;;;;;;;;;2.70;88.50;;;;;;5053273;28;20276;-82
2023/01/17 08:16:50;;;;;;;;;;;2.70;89.00;;;;;;5047807;28;19921;-82
2023/01/17 08:19:15;;;;;;;;;;;2.70;88.90;;;;;;5062714;28;20006;-78
2023/01/17 08:21:42;;;;;;;;;;;2.60;88.90;;;;;;5064480;28;19913;-81
2023/01/17 08:24:13;;;;;;;;;;;2.60;89.20;;;;;;5052925;28;19978;-79
2023/01/17 08:26:39;;;;;;;;;;;2.70;88.60;;;;;;5069038;28;19917;-79
2023/01/17 08:29:04;;;;;;;;;;;2.60;88.50;;;;;;5059356;28;19916;-79
2023/01/17 08:31:31;;;;;;;;;;;2.70;88.20;;;;;;5039507;28;20402;-79
2023/01/17 08:33:56;;;;;;;;;;;2.70;88.00;;;;;;5040036;28;20266;-79
2023/01/17 08:36:24;;;;;;;;;;;2.70;88.00;;;;;;5056393;28;19913;-83
2023/01/17 08:38:51;;;;;;;;;;;2.70;88.80;;;;;;5048936;28;19913;-82
2023/01/17 08:41:20;;;;;;;;;;;2.80;88.60;;;;;;5064002;28;19991;-83
2023/01/17 08:43:49;;;;;;;;;;;2.80;87.90;;;;;;5049152;28;19983;-81
2023/01/17 08:46:15;;;;;;;;;;;2.90;88.10;;;;;;5049922;28;20730;-81
2023/01/17 08:48:40;;;;;;;;;;;3.00;88.50;;;;;;5070556;28;19916;-81
2023/01/17 08:51:06;;;;;;;;;;;2.90;88.00;;;;;;5079215;28;20151;-80
2023/01/17 08:53:31;;;;;;;;;;;3.00;87.70;;;;;;5069675;28;19916;-82
2023/01/17 08:55:58;;;;;;;;;;;3.00;88.00;;;;;;5077080;28;19991;-80
2023/01/17 08:58:24;;;;;;;;;;;3.00;87.50;;;;;;5070024;28;20007;-81
2023/01/17 09:00:49;;;;;;;;;;;3.00;87.20;;;;;;5065684;28;20438;-79
2023/01/17 09:03:15;;;;;;;;;;;3.00;87.60;;;;;;5073870;28;19919;-81
2023/01/17 09:05:40;;;;;;;;;;;2.90;87.70;;;;;;5055647;28;20015;-81
2023/01/17 09:08:06;;;;;;;;;;;2.90;87.90;;;;;;5070083;28;19920;-81
2023/01/17 09:10:31;;;;;;;;;;;2.80;87.50;;;;;;5065300;28;19923;-81
2023/01/17 09:12:57;;;;;;;;;;;2.90;87.20;;;;;;5050100;28;19924;-83
2023/01/17 09:15:22;;;;;;;;;;;2.80;86.90;;;;;;5061688;28;19919;-83
2023/01/17 09:17:48;;;;;;;;;;;2.70;87.60;;;;;;5066821;28;19920;-82
2023/01/17 09:20:13;;;;;;;;;;;2.60;87.70;;;;;;5056677;28;19948;-82
2023/01/17 09:22:39;;;;;;;;;;;2.60;87.60;;;;;;5066265;28;19912;-82
2023/01/17 09:25:05;;;;;;;;;;;2.70;87.70;;;;;;5065099;28;19916;-83
2023/01/17 09:27:30;;;;;;;;;;;2.60;87.80;;;;;;5055061;28;20332;-82
2023/01/17 09:29:56;;;;;;;;;;;2.60;87.90;;;;;;5073524;28;19913;-83
2023/01/17 09:32:21;;;;;;;;;;;2.70;88.50;;;;;;5065800;28;19920;-82
2023/01/17 09:34:47;;;;;;;;;;;2.90;88.50;;;;;;5053888;28;19916;-83
2023/01/17 09:37:12;;;;;;;;;;;3.10;88.00;;;;;;5055666;28;19928;-83
2023/01/17 09:39:38;;;;;;;;;;;3.10;87.90;;;;;;5062684;28;19920;-83
2023/01/17 09:42:18;;;;;;;;;;;3.10;87.20;;;;;;5065461;28;19920;-82
2023/01/17 09:44:47;;;;;;;;;;;3.00;87.40;;;;;;5075969;28;19987;-82
2023/01/17 09:47:31;;;;;;;;;;;3.10;87.10;;;;;;5079467;28;19954;-83
2023/01/17 09:50:01;;;;;;;;;;;3.10;86.70;;;;;;5062684;28;20115;-83
2023/01/17 09:52:28;;;;;;;;;;;3.00;87.10;;;;;;5064780;28;19993;-83
2023/01/17 09:54:54;;;;;;;;;;;3.10;87.20;;;;;;5070665;28;19913;-82
2023/01/17 09:57:29;;;;;;;;;;;3.20;87.20;;;;;;5075344;28;19919;-82
2023/01/17 10:00:02;;;;;;;;;;;3.30;87.30;;;;;;5056427;28;19913;-83
2023/01/17 10:02:40;;;;;;;;;;;3.40;87.00;;;;;;5062209;28;20006;-83
2023/01/17 10:05:15;;;;;;;;;;;3.40;86.70;;;;;;5062993;28;19936;-83
2023/01/17 10:08:03;;;;;;;;;;;3.40;86.30;;;;;;5044861;28;19912;-82
2023/01/17 10:10:58;;;;;;;;;;;3.30;86.10;;;;;;5054887;28;19916;-82
2023/01/17 10:13:33;;;;;;;;;;;3.30;85.70;;;;;;5038878;28;19919;-82
2023/01/17 10:16:01;;;;;;;;;;;3.30;85.90;;;;;;5046782;28;19912;-82
2023/01/17 10:18:30;;;;;;;;;;;3.30;85.90;;;;;;5050877;28;19917;-82
2023/01/17 10:21:09;;;;;;;;;;;3.40;85.90;;;;;;5047691;28;20415;-82
2023/01/17 10:23:41;;;;;;;;;;;3.60;85.60;;;;;;5046654;28;20272;-81
2023/01/17 10:26:13;;;;;;;;;;;3.60;86.10;;;;;;5066692;28;20230;-81
2023/01/17 10:28:46;;;;;;;;;;;3.50;85.70;;;;;;5071887;28;19966;-81
2023/01/17 10:31:25;;;;;;;;;;;3.50;85.20;;;;;;5071720;28;19917;-80
2023/01/17 10:33:54;;;;;;;;;;;3.60;85.40;;;;;;5064767;28;19916;-81
2023/01/17 10:36:28;;;;;;;;;;;3.60;85.60;;;;;;5069427;28;19916;-81
2023/01/17 10:38:55;;;;;;;;;;;3.60;85.80;;;;;;5060070;28;20385;-80
2023/01/17 10:41:28;;;;;;;;;;;3.50;85.90;;;;;;5055028;28;19939;-81
2023/01/17 10:43:54;;;;;;;;;;;3.50;85.80;;;;;;5072811;28;19913;-79
2023/01/17 10:46:22;;;;;;;;;;;3.50;86.00;;;;;;5068164;28;20003;-82
2023/01/17 10:48:50;;;;;;;;;;;3.50;85.80;;;;;;5071046;28;19912;-84
2023/01/17 10:51:24;;;;;;;;;;;3.40;85.90;;;;;;5057996;28;19912;-84
2023/01/17 10:54:02;;;;;;;;;;;3.40;85.70;;;;;;5064271;28;20376;-83
2023/01/17 10:56:28;;;;;;;;;;;3.30;85.80;;;;;;5046686;28;19919;-83
2023/01/17 10:59:12;;;;;;;;;;;3.40;85.30;;;;;;5055035;28;19935;-83
2023/01/17 11:01:38;;;;;;;;;;;3.40;85.30;;;;;;5048900;28;20371;-83
2023/01/17 11:04:10;;;;;;;;;;;3.30;85.30;;;;;;5063774;28;19945;-82
2023/01/17 11:06:37;;;;;;;;;;;3.40;85.30;;;;;;5070452;28;19927;-83
2023/01/17 11:09:04;;;;;;;;;;;3.40;85.70;;;;;;5074763;28;20010;-83
2023/01/17 11:11:33;;;;;;;;;;;3.30;85.80;;;;;;5073069;28;19913;-83
2023/01/17 11:13:59;;;;;;;;;;;3.40;86.00;;;;;;5053853;28;19919;-82
2023/01/17 11:16:28;;;;;;;;;;;3.40;86.10;;;;;;5056421;28;19954;-82
2023/01/17 11:19:05;;;;;;;;;;;3.40;86.20;;;;;;5073421;28;20030;-83
2023/01/17 11:21:31;;;;;;;;;;;3.50;86.50;;;;;;5070804;28;19912;-83
2023/01/17 11:23:56;;;;;;;;;;;3.60;86.40;;;;;;5066706;28;20408;-84
2023/01/17 11:26:33;;;;;;;;;;;3.60;86.30;;;;;;5060545;28;19917;-85
2023/01/17 11:29:29;;;;;;;;;;;3.60;86.10;;;;;;5071279;28;19952;-85
2023/01/17 11:31:55;;;;;;;;;;;3.70;85.70;;;;;;5056758;28;19927;-84
2023/01/17 11:34:25;;;;;;;;;;;3.70;85.50;;;;;;5096186;28;19912;-83
2023/01/17 11:37:07;;;;;;;;;;;3.80;85.50;;;;;;5045852;28;19920;-84
2023/01/17 11:39:32;;;;;;;;;;;3.80;85.40;;;;;;5086138;28;19912;-84
2023/01/17 11:41:58;;;;;;;;;;;3.90;85.60;;;;;;5058325;28;19926;-84
2023/01/17 11:44:25;;;;;;;;;;;4.00;85.10;;;;;;5053613;28;20372;-83
2023/01/17 11:47:14;;;;;;;;;;;4.10;84.00;;;;;;5052844;28;20031;-83
2023/01/17 11:49:41;;;;;;;;;;;4.10;84.10;;;;;;5043112;28;19920;-83
2023/01/17 11:52:15;;;;;;;;;;;4.10;83.40;;;;;;5056794;28;19982;-83
2023/01/17 11:54:43;;;;;;;;;;;4.10;83.10;;;;;;5071111;28;21663;-84
2023/01/17 11:57:37;;;;;;;;;;;4.20;83.20;;;;;;5064530;28;20754;-82
2023/01/17 12:00:23;;;;;;;;;;;4.30;82.20;;;;;;5049162;28;19912;-82
2023/01/17 12:02:58;;;;;;;;;;;4.30;82.80;;;;;;5048899;28;19996;-82
2023/01/17 12:05:43;;;;;;;;;;;4.30;81.50;;;;;;5058389;28;19913;-82
2023/01/17 12:08:17;;;;;;;;;;;4.40;80.70;;;;;;5069283;28;20041;-82
2023/01/17 12:10:50;;;;;;;;;;;4.50;80.60;;;;;;5051397;28;19987;-82
2023/01/17 12:16:29;;;;;;;;;;;4.60;80.70;;;;;;5074918;28;20025;-85
2023/01/17 12:19:01;;;;;;;;;;;4.50;81.90;;;;;;5067804;28;19919;-85
2023/01/17 12:21:33;;;;;;;;;;;4.60;82.00;;;;;;5054548;28;19913;-84
2023/01/17 12:24:17;;;;;;;;;;;4.50;81.80;;;;;;5071911;28;19923;-84
2023/01/17 12:26:51;;;;;;;;;;;4.60;81.20;;;;;;5036249;28;19916;-85
2023/01/17 12:29:32;;;;;;;;;;;4.70;80.30;;;;;;5046783;28;19923;-85
2023/01/17 12:32:06;;;;;;;;;;;4.70;82.20;;;;;;5078840;28;19912;-83
2023/01/17 12:34:45;;;;;;;;;;;4.80;81.30;;;;;;5061330;28;19931;-84
2023/01/17 12:37:14;;;;;;;;;;;5.00;80.90;;;;;;5065390;28;19919;-84
2023/01/17 12:39:42;;;;;;;;;;;4.90;80.60;;;;;;5056819;28;20038;-83
2023/01/17 12:42:12;;;;;;;;;;;4.90;80.50;;;;;;5056765;28;19920;-83
2023/01/17 12:44:48;;;;;;;;;;;4.80;80.20;;;;;;5071737;28;20007;-83
2023/01/17 12:47:14;;;;;;;;;;;4.80;79.70;;;;;;5059960;28;20296;-84
2023/01/17 12:49:56;;;;;;;;;;;4.90;80.90;;;;;;5056256;28;20589;-83
2023/01/17 12:52:22;;;;;;;;;;;4.90;79.80;;;;;;5065325;28;19920;-81
2023/01/17 12:54:50;;;;;;;;;;;4.90;79.70;;;;;;5053693;28;19913;-81
2023/01/17 12:57:24;;;;;;;;;;;5.00;79.20;;;;;;5060692;28;19918;-83
2023/01/17 12:59:53;;;;;;;;;;;4.90;79.30;;;;;;5058847;28;19919;-84
2023/01/17 13:02:31;;;;;;;;;;;4.90;78.90;;;;;;5055525;28;19920;-84
2023/01/17 13:05:07;;;;;;;;;;;5.00;79.70;;;;;;5067592;28;19940;-81
2023/01/17 13:07:41;;;;;;;;;;;5.10;79.80;;;;;;5051371;28;19919;-81
2023/01/17 13:10:06;;;;;;;;;;;5.20;79.30;;;;;;5087001;28;19931;-81
2023/01/17 13:12:32;;;;;;;;;;;5.20;78.90;;;;;;5078956;28;19909;-81
2023/01/17 13:14:58;;;;;;;;;;;5.20;77.60;;;;;;5081167;28;19923;-80
2023/01/17 13:17:35;;;;;;;;;;;5.20;77.40;;;;;;5073682;28;19973;-82
2023/01/17 13:20:16;;;;;;;;;;;5.30;78.00;;;;;;5094240;28;20320;-81
2023/01/17 13:22:42;;;;;;;;;;;5.50;78.80;;;;;;5060782;28;19915;-81
2023/01/17 13:25:20;;;;;;;;;;;5.60;78.10;;;;;;5066086;28;19960;-81
2023/01/17 13:27:54;;;;;;;;;;;5.70;75.40;;;;;;5064586;28;19966;-81
2023/01/17 13:30:49;;;;;;;;;;;5.70;75.20;;;;;;5094623;28;19941;-82
2023/01/17 13:33:15;;;;;;;;;;;5.70;75.30;;;;;;5011211;28;19938;-81
2023/01/17 13:35:43;;;;;;;;;;;5.60;75.20;;;;;;5077102;28;19916;-81
2023/01/17 13:38:24;;;;;;;;;;;5.50;73.80;;;;;;5064907;28;19999;-81
2023/01/17 13:40:53;;;;;;;;;;;5.30;74.70;;;;;;5094986;28;19913;-81
2023/01/17 13:43:29;;;;;;;;;;;5.10;74.90;;;;;;5055524;28;19928;-81
2023/01/17 13:45:56;;;;;;;;;;;5.00;76.00;;;;;;5068220;28;19994;-81
2023/01/17 13:48:26;;;;;;;;;;;4.80;75.50;;;;;;5089650;28;20043;-81
2023/01/17 13:50:56;;;;;;;;;;;4.70;75.60;;;;;;5060924;28;19919;-81
2023/01/17 13:53:27;;;;;;;;;;;4.70;76.30;;;;;;5067583;28;19912;-81
2023/01/17 13:56:12;;;;;;;;;;;4.80;78.00;;;;;;5080563;28;19912;-80
2023/01/17 13:58:48;;;;;;;;;;;4.70;77.30;;;;;;5050935;28;19973;-81
2023/01/17 14:01:37;;;;;;;;;;;4.70;78.10;;;;;;5059338;28;19912;-81
2023/01/17 14:04:09;;;;;;;;;;;4.60;77.50;;;;;;5053506;28;19942;-80
2023/01/17 14:06:35;;;;;;;;;;;4.60;76.80;;;;;;5062181;28;19912;-81
2023/01/17 14:09:06;;;;;;;;;;;4.50;77.30;;;;;;5082599;28;19923;-81
2023/01/17 14:11:33;;;;;;;;;;;4.50;76.70;;;;;;5059266;28;19995;-80
2023/01/17 14:14:19;;;;;;;;;;;4.40;77.00;;;;;;5086054;28;20428;-81
2023/01/17 14:16:44;;;;;;;;;;;4.40;77.40;;;;;;5069939;28;19963;-81
2023/01/17 14:19:23;;;;;;;;;;;4.20;77.60;;;;;;5084413;28;19917;-81
2023/01/17 14:21:49;;;;;;;;;;;4.30;79.20;;;;;;5075783;28;19962;-81
2023/01/17 14:24:15;;;;;;;;;;;4.30;79.40;;;;;;5065724;28;19917;-81
2023/01/17 14:26:44;;;;;;;;;;;4.20;79.40;;;;;;5084730;28;19917;-81
2023/01/17 14:29:28;;;;;;;;;;;4.30;79.10;;;;;;5082650;28;19927;-81
2023/01/17 14:32:01;;;;;;;;;;;4.30;78.40;;;;;;5073495;28;20258;-80
2023/01/17 14:34:26;;;;;;;;;;;4.20;78.80;;;;;;5051731;28;19916;-83
2023/01/17 14:37:02;;;;;;;;;;;4.20;78.90;;;;;;5088024;28;19950;-83
2023/01/17 14:39:27;;;;;;;;;;;4.20;78.60;;;;;;5074285;28;19913;-81
2023/01/17 14:41:53;;;;;;;;;;;4.20;78.30;;;;;;5053543;28;19966;-81
2023/01/17 14:44:18;;;;;;;;;;;4.10;78.20;;;;;;5053813;28;19912;-79
2023/01/17 14:46:46;;;;;;;;;;;4.10;78.40;;;;;;5072929;28;19924;-82
2023/01/17 14:49:24;;;;;;;;;;;4.20;78.80;;;;;;5066489;28;20626;-82
2023/01/17 14:52:03;;;;;;;;;;;4.10;78.70;;;;;;5053137;28;19947;-81
2023/01/17 14:54:28;;;;;;;;;;;4.10;77.90;;;;;;5063893;28;19977;-81
2023/01/17 14:57:12;;;;;;;;;;;4.10;78.90;;;;;;5101302;28;19990;-79
2023/01/17 14:59:38;;;;;;;;;;;4.10;79.20;;;;;;5088017;28;19936;-80
2023/01/17 15:02:10;;;;;;;;;;;4.00;79.10;;;;;;5055702;28;20372;-80
2023/01/17 15:04:38;;;;;;;;;;;4.00;79.30;;;;;;5060870;28;19912;-80
2023/01/17 15:07:03;;;;;;;;;;;3.90;79.80;;;;;;5096218;28;19989;-79
2023/01/17 15:09:31;;;;;;;;;;;4.00;79.80;;;;;;5082892;28;19923;-80
2023/01/17 15:11:57;;;;;;;;;;;3.90;79.70;;;;;;5085564;28;20335;-80
2023/01/17 15:14:22;;;;;;;;;;;3.90;80.30;;;;;;5053493;28;19916;-80
2023/01/17 15:16:50;;;;;;;;;;;3.80;80.20;;;;;;5091261;28;20372;-80
2023/01/17 15:19:16;;;;;;;;;;;3.70;80.50;;;;;;5100977;28;19923;-80
2023/01/17 15:21:42;;;;;;;;;;;3.70;80.90;;;;;;5080821;28;19908;-80
2023/01/17 15:24:14;;;;;;;;;;;3.60;81.10;;;;;;5049325;28;20590;-80
2023/01/17 15:26:42;;;;;;;;;;;3.60;81.60;;;;;;5071093;28;20039;-80
2023/01/17 15:29:33;;;;;;;;;;;3.50;81.70;;;;;;5081992;28;19920;-80
2023/01/17 15:32:03;;;;;;;;;;;3.60;81.70;;;;;;5056025;28;20303;-80
2023/01/17 15:34:33;;;;;;;;;;;3.60;81.50;;;;;;5062266;28;19919;-80
2023/01/17 15:37:00;;;;;;;;;;;3.50;81.50;;;;;;5088287;28;19919;-80
2023/01/17 15:39:29;;;;;;;;;;;3.40;81.50;;;;;;5068825;28;19913;-80
2023/01/17 15:41:55;;;;;;;;;;;3.30;81.40;;;;;;5065586;28;19927;-80
2023/01/17 15:44:26;;;;;;;;;;;3.30;82.20;;;;;;5069121;28;19944;-79
2023/01/17 15:46:52;;;;;;;;;;;3.10;82.20;;;;;;5076405;28;19920;-80
2023/01/17 15:49:19;;;;;;;;;;;3.10;82.40;;;;;;5064354;28;19917;-80
2023/01/17 15:51:55;;;;;;;;;;;3.00;82.50;;;;;;5060837;28;19956;-80
2023/01/17 15:54:25;;;;;;;;;;;2.90;83.30;;;;;;5065075;28;20280;-79
2023/01/17 15:57:04;;;;;;;;;;;2.90;83.40;;;;;;5079709;28;20038;-80
2023/01/17 15:59:29;;;;;;;;;;;2.80;83.20;;;;;;5092106;28;19917;-80
2023/01/17 16:01:55;;;;;;;;;;;2.70;83.30;;;;;;5068885;28;20246;-80
2023/01/17 16:04:31;;;;;;;;;;;2.70;84.40;;;;;;5059971;28;19916;-80